Time;durP1;ratioP1;P1;durP2;ratioP2;P2;SDS_P1;SDS_P2;PMS_P1;PMS_P2;Temp;Humidity;BMP_temperature;BMP_pressure;BME280_temperature;BME280_humidity;BME280_pressure;Samples;Min_cycle;Max_cycle;Signal;HPM_P1;HPM_P2
2021/06/03 00:01:36;;;;;;;6.07;3.10;;;17.70;62.20;;;;;;5071630;28;20116;-70
2021/06/03 00:04:11;;;;;;;3.92;3.38;;;17.70;62.20;;;;;;5070945;28;20028;-70
2021/06/03 00:06:43;;;;;;;6.15;3.67;;;17.70;62.30;;;;;;5071246;28;20534;-70
2021/06/03 00:09:11;;;;;;;6.63;4.07;;;17.70;62.50;;;;;;5070538;28;20119;-69
2021/06/03 00:11:42;;;;;;;4.90;3.63;;;17.70;62.40;;;;;;5071769;28;20032;-70
2021/06/03 00:14:17;;;;;;;5.68;3.60;;;17.70;62.50;;;;;;5070611;28;20041;-67
2021/06/03 00:16:52;;;;;;;4.15;3.20;;;17.70;62.30;;;;;;5071549;28;20134;-67
2021/06/03 00:19:20;;;;;;;5.85;3.25;;;17.60;62.50;;;;;;5071614;28;20102;-68
2021/06/03 00:21:55;;;;;;;4.68;3.53;;;17.60;63.40;;;;;;5071402;28;20033;-68
2021/06/03 00:24:21;;;;;;;4.57;3.20;;;17.60;62.90;;;;;;5071359;28;20390;-68
2021/06/03 00:26:59;;;;;;;4.63;3.40;;;17.60;63.30;;;;;;5070807;28;20029;-68
2021/06/03 00:29:30;;;;;;;3.53;3.20;;;17.50;63.40;;;;;;5071225;28;20039;-69
2021/06/03 00:31:55;;;;;;;4.15;3.22;;;17.50;63.70;;;;;;5070804;28;20032;-69
2021/06/03 00:34:42;;;;;;;4.25;3.35;;;17.40;64.00;;;;;;5070874;28;20385;-69
2021/06/03 00:37:11;;;;;;;4.28;3.00;;;17.40;64.20;;;;;;5063253;28;20024;-68
2021/06/03 00:39:47;;;;;;;3.97;3.30;;;17.30;64.50;;;;;;5071269;28;20104;-69
2021/06/03 00:42:20;;;;;;;6.68;4.65;;;17.20;65.00;;;;;;5071348;28;20070;-69
2021/06/03 00:44:49;;;;;;;6.20;3.70;;;17.10;65.50;;;;;;5070761;28;20032;-69
2021/06/03 00:47:23;;;;;;;7.18;4.80;;;17.10;66.10;;;;;;5053516;28;20029;-69
2021/06/03 00:49:48;;;;;;;6.60;3.90;;;17.00;65.90;;;;;;5070143;28;20039;-69
2021/06/03 00:52:28;;;;;;;5.57;4.30;;;16.90;66.10;;;;;;5071499;28;20040;-69
2021/06/03 00:55:03;;;;;;;7.45;3.85;;;16.90;66.70;;;;;;5069731;28;20064;-68
2021/06/03 00:57:35;;;;;;;8.10;4.20;;;16.80;66.80;;;;;;5071080;28;20032;-69
2021/06/03 01:00:03;;;;;;;7.78;4.43;;;16.80;67.20;;;;;;5069971;28;20033;-69
2021/06/03 01:02:29;;;;;;;9.73;3.95;;;16.80;67.50;;;;;;5070670;28;20024;-69
2021/06/03 01:05:20;;;;;;;5.22;4.00;;;16.70;67.40;;;;;;5070066;28;20035;-69
2021/06/03 01:07:51;;;;;;;5.72;3.38;;;16.70;67.20;;;;;;5070848;28;20039;-69
2021/06/03 01:10:33;;;;;;;4.57;3.28;;;16.70;67.40;;;;;;5070871;28;20021;-69
2021/06/03 01:13:28;;;;;;;5.60;3.70;;;16.60;67.50;;;;;;5061866;28;20040;-69
2021/06/03 01:15:55;;;;;;;4.47;3.47;;;16.60;67.60;;;;;;5065600;28;20501;-68
2021/06/03 01:18:24;;;;;;;6.95;3.85;;;16.60;67.70;;;;;;5071039;28;20055;-69
2021/06/03 01:20:54;;;;;;;6.45;4.43;;;16.50;67.90;;;;;;5070409;28;20033;-69
2021/06/03 01:23:33;;;;;;;4.00;3.40;;;16.50;68.30;;;;;;5069813;28;20063;-68
2021/06/03 01:26:10;;;;;;;4.57;3.50;;;16.40;68.40;;;;;;5069752;28;20040;-69
2021/06/03 01:28:39;;;;;;;7.03;3.42;;;16.40;68.70;;;;;;5064364;28;20036;-69
2021/06/03 01:31:05;;;;;;;4.22;3.78;;;16.30;68.60;;;;;;5070234;28;20381;-69
2021/06/03 01:33:33;;;;;;;5.07;3.42;;;16.30;69.10;;;;;;5070410;28;20034;-69
2021/06/03 01:36:08;;;;;;;6.00;3.60;;;16.30;69.70;;;;;;5069876;28;20473;-69
2021/06/03 01:38:45;;;;;;;4.53;3.53;;;16.20;70.10;;;;;;5071098;28;20024;-69
2021/06/03 01:41:15;;;;;;;4.10;3.10;;;16.20;70.50;;;;;;5068438;28;20083;-69
2021/06/03 01:43:43;;;;;;;5.82;3.55;;;16.10;70.90;;;;;;5060007;28;20041;-69
2021/06/03 01:46:18;;;;;;;3.90;3.20;;;16.00;71.30;;;;;;5060658;28;20029;-69
2021/06/03 01:48:56;;;;;;;3.92;3.13;;;15.90;71.50;;;;;;5063000;28;20029;-68
2021/06/03 01:51:42;;;;;;;4.22;3.38;;;15.90;71.70;;;;;;5062409;28;20040;-68
2021/06/03 01:54:12;;;;;;;5.18;3.53;;;15.80;72.10;;;;;;5057107;28;20041;-69
2021/06/03 01:56:56;;;;;;;3.58;3.28;;;15.80;72.80;;;;;;5062645;28;20020;-69
2021/06/03 01:59:21;;;;;;;7.35;3.97;;;15.70;73.20;;;;;;5062626;28;20059;-68
2021/06/03 02:02:08;;;;;;;4.47;3.47;;;15.70;74.20;;;;;;5058301;28;20033;-69
2021/06/03 02:04:39;;;;;;;5.32;3.58;;;15.70;74.40;;;;;;5063782;28;20029;-68
2021/06/03 02:07:10;;;;;;;4.72;3.33;;;15.70;74.80;;;;;;5059930;28;20386;-69
2021/06/03 02:09:39;;;;;;;5.55;3.40;;;15.70;75.10;;;;;;5061520;28;20032;-69
2021/06/03 02:12:27;;;;;;;4.50;3.67;;;15.70;75.40;;;;;;5059689;28;20371;-68
2021/06/03 02:14:55;;;;;;;8.45;3.70;;;15.70;75.50;;;;;;5057981;28;20025;-68
2021/06/03 02:17:35;;;;;;;5.35;3.40;;;15.70;75.80;;;;;;5066049;28;20020;-69
2021/06/03 02:20:26;;;;;;;3.78;3.42;;;15.60;76.40;;;;;;5060286;28;20025;-69
2021/06/03 02:22:56;;;;;;;6.40;3.67;;;15.60;76.90;;;;;;5063257;28;20119;-68
2021/06/03 02:28:37;;;;;;;3.47;2.78;;;15.60;78.80;;;;;;5063731;28;19995;-69
2021/06/03 02:31:24;;;;;;;3.58;3.00;;;15.50;78.40;;;;;;5064337;28;20024;-68
2021/06/03 02:33:53;;;;;;;4.25;2.95;;;15.50;79.00;;;;;;5061504;28;20048;-68
2021/06/03 02:36:32;;;;;;;3.83;2.95;;;15.50;79.50;;;;;;5063167;28;20492;-68
2021/06/03 02:39:10;;;;;;;4.40;3.65;;;15.50;79.80;;;;;;5063209;28;20749;-68
2021/06/03 02:41:48;;;;;;;4.28;3.58;;;15.50;80.50;;;;;;5064313;28;20060;-69
2021/06/03 02:44:26;;;;;;;;;;;;;;;;;;;;;
2021/06/03 02:46:52;;;;;;;5.63;4.35;;;15.40;81.30;;;;;;5064535;28;20032;-68
2021/06/03 02:49:23;;;;;;;4.88;3.47;;;15.50;81.50;;;;;;5063903;28;20143;-69
2021/06/03 02:51:49;;;;;;;3.55;3.25;;;15.50;81.50;;;;;;5061695;28;20063;-68
2021/06/03 02:54:38;;;;;;;3.55;3.25;;;15.50;81.60;;;;;;5064062;28;20028;-68
2021/06/03 02:57:13;;;;;;;3.95;3.22;;;15.60;82.40;;;;;;5051272;28;20064;-68
2021/06/03 02:59:39;;;;;;;3.65;2.72;;;15.60;82.80;;;;;;5061860;28;20071;-69
2021/06/03 03:02:07;;;;;;;4.18;3.13;;;15.70;83.10;;;;;;5062746;28;20048;-68
2021/06/03 03:04:35;;;;;;;3.85;3.35;;;15.70;83.50;;;;;;5062458;28;20094;-68
2021/06/03 03:07:01;;;;;;;4.18;3.05;;;15.70;84.00;;;;;;5061857;28;20458;-67
2021/06/03 03:09:35;;;;;;;4.65;3.55;;;15.80;83.90;;;;;;5063820;28;20104;-68
2021/06/03 03:12:04;;;;;;;4.22;3.70;;;15.80;84.50;;;;;;5064389;28;20042;-68
2021/06/03 03:14:33;;;;;;;7.82;3.78;;;15.80;85.10;;;;;;5063470;28;20032;-69
2021/06/03 03:16:59;;;;;;;4.25;3.28;;;15.80;84.70;;;;;;5065154;28;20040;-69
2021/06/03 03:19:24;;;;;;;4.80;3.58;;;15.90;84.60;;;;;;5072581;28;20035;-69
2021/06/03 03:22:13;;;;;;;6.70;3.42;;;15.90;84.70;;;;;;5072442;28;20060;-69
2021/06/03 03:24:42;;;;;;;4.97;3.75;;;15.90;84.70;;;;;;5072154;28;20051;-69
2021/06/03 03:27:10;;;;;;;3.80;3.40;;;15.90;85.70;;;;;;5071580;28;20060;-69
2021/06/03 03:29:41;;;;;;;4.90;3.70;;;15.90;86.20;;;;;;5072332;28;20025;-69
2021/06/03 03:32:13;;;;;;;4.25;3.08;;;15.90;86.30;;;;;;5063523;28;20078;-69
2021/06/03 03:34:50;;;;;;;4.50;3.60;;;15.90;86.60;;;;;;5072957;28;20028;-68
2021/06/03 03:37:17;;;;;;;7.60;3.58;;;15.90;86.50;;;;;;5071664;28;20052;-68
2021/06/03 03:39:57;;;;;;;5.25;4.05;;;15.90;87.20;;;;;;5072107;28;20025;-68
2021/06/03 03:42:23;;;;;;;5.85;3.97;;;16.00;85.30;;;;;;5072154;28;20523;-68
2021/06/03 03:44:52;;;;;;;4.30;3.67;;;16.00;84.40;;;;;;5071685;28;20020;-68
2021/06/03 03:47:18;;;;;;;5.03;3.22;;;16.00;84.30;;;;;;5071133;28;20025;-69
2021/06/03 03:49:52;;;;;;;5.05;3.75;;;16.00;84.00;;;;;;5071721;28;20494;-68
2021/06/03 03:52:18;;;;;;;5.10;3.83;;;16.00;83.80;;;;;;5054328;28;20044;-68
2021/06/03 03:54:47;;;;;;;4.07;3.63;;;16.00;83.50;;;;;;5071894;28;20443;-68
2021/06/03 03:57:19;;;;;;;4.50;3.42;;;16.00;83.20;;;;;;5071053;28;20028;-68
2021/06/03 03:59:45;;;;;;;4.20;3.50;;;16.10;83.10;;;;;;5071865;28;20036;-68
2021/06/03 04:02:33;;;;;;;6.07;3.60;;;16.10;83.50;;;;;;5070428;28;20024;-67
2021/06/03 04:05:25;;;;;;;3.78;3.38;;;16.10;83.60;;;;;;5070933;28;20056;-68
2021/06/03 04:07:50;;;;;;;5.50;4.07;;;16.20;83.30;;;;;;5065333;28;20050;-68
2021/06/03 04:10:27;;;;;;;5.18;3.58;;;16.20;84.70;;;;;;5071225;28;20043;-68
2021/06/03 04:12:52;;;;;;;4.60;3.55;;;16.20;85.20;;;;;;5070667;28;20028;-68
2021/06/03 04:15:21;;;;;;;5.93;3.88;;;16.30;85.90;;;;;;5065104;28;20028;-67
2021/06/03 04:17:48;;;;;;;3.53;3.22;;;16.30;86.60;;;;;;5067461;28;20040;-67
2021/06/03 04:20:41;;;;;;;5.30;3.55;;;16.40;87.30;;;;;;5070672;28;20355;-69
2021/06/03 04:23:47;;;;;;;4.50;3.83;;;16.40;88.20;;;;;;5052498;28;20060;-67
2021/06/03 04:26:18;;;;;;;8.15;3.40;;;16.40;87.80;;;;;;5052560;28;20061;-68
2021/06/03 04:28:44;;;;;;;4.10;3.70;;;16.50;88.30;;;;;;5070886;28;20025;-67
2021/06/03 04:31:10;;;;;;;3.53;3.22;;;16.60;88.70;;;;;;5069959;28;20031;-68
2021/06/03 04:34:02;;;;;;;4.78;3.65;;;16.60;88.70;;;;;;5071417;28;20020;-68
2021/06/03 04:36:41;;;;;;;4.22;3.40;;;16.60;88.40;;;;;;5071207;28;20111;-68
2021/06/03 04:39:10;;;;;;;4.63;3.40;;;16.70;88.00;;;;;;5064156;28;20052;-69
2021/06/03 04:41:38;;;;;;;4.00;3.50;;;16.70;87.70;;;;;;5071138;28;20070;-68
2021/06/03 04:44:14;;;;;;;4.32;3.50;;;16.70;87.80;;;;;;5056346;28;20385;-68
2021/06/03 04:46:41;;;;;;;6.70;3.80;;;16.80;88.00;;;;;;5068563;28;20445;-68
2021/06/03 04:49:16;;;;;;;5.10;3.75;;;16.80;88.00;;;;;;5070458;28;20102;-68
2021/06/03 04:51:42;;;;;;;4.68;4.03;;;16.80;88.50;;;;;;5070672;28;20086;-69
2021/06/03 04:54:19;;;;;;;5.32;4.45;;;16.90;88.30;;;;;;5070559;28;20037;-73
2021/06/03 04:57:12;;;;;;;5.68;4.45;;;17.00;87.90;;;;;;5071120;28;20040;-68
2021/06/03 04:59:43;;;;;;;5.72;4.20;;;17.00;85.40;;;;;;5070974;28;20485;-68
2021/06/03 05:02:08;;;;;;;5.30;4.20;;;17.00;84.10;;;;;;5070184;28;20044;-68
2021/06/03 05:04:34;;;;;;;4.97;3.88;;;17.10;84.00;;;;;;5052966;28;20025;-68
2021/06/03 05:07:00;;;;;;;4.78;3.35;;;17.10;83.70;;;;;;5064352;28;20127;-68
2021/06/03 05:09:25;;;;;;;8.32;3.90;;;17.20;84.00;;;;;;5053151;28;20028;-68
2021/06/03 05:11:51;;;;;;;5.85;4.20;;;17.20;84.50;;;;;;5070944;28;20111;-69
2021/06/03 05:14:16;;;;;;;5.40;4.30;;;17.20;83.90;;;;;;5068468;28;20103;-69
2021/06/03 05:16:43;;;;;;;6.68;4.30;;;17.30;83.30;;;;;;5070123;28;20025;-68
2021/06/03 05:19:08;;;;;;;4.45;3.60;;;17.30;83.70;;;;;;5070158;28;20036;-68
2021/06/03 05:21:34;;;;;;;5.47;3.33;;;17.30;82.80;;;;;;5071080;28;20038;-68
2021/06/03 05:24:00;;;;;;;6.47;4.00;;;17.40;82.20;;;;;;5070254;28;20136;-69
2021/06/03 05:26:25;;;;;;;6.45;3.80;;;17.40;86.10;;;;;;5070817;28;20040;-68
2021/06/03 05:28:51;;;;;;;5.93;3.97;;;17.40;86.50;;;;;;5070564;28;20094;-68
2021/06/03 05:31:17;;;;;;;4.15;3.42;;;17.50;87.10;;;;;;5069730;28;20034;-69
2021/06/03 05:33:42;;;;;;;4.50;3.40;;;17.50;86.80;;;;;;5070665;28;20021;-68
2021/06/03 05:36:08;;;;;;;5.78;3.55;;;17.60;86.60;;;;;;5070034;28;20036;-69
2021/06/03 05:38:34;;;;;;;4.40;3.67;;;17.70;86.60;;;;;;5052998;28;20134;-68
2021/06/03 05:40:59;;;;;;;3.90;3.42;;;17.70;86.40;;;;;;5069801;28;20043;-68
2021/06/03 05:43:26;;;;;;;4.28;3.75;;;17.80;86.40;;;;;;5070346;28;20024;-69
2021/06/03 05:45:51;;;;;;;3.85;3.45;;;18.00;86.30;;;;;;5070479;28;20056;-68
2021/06/03 05:48:17;;;;;;;7.03;4.20;;;18.20;86.40;;;;;;5070311;28;20372;-69
2021/06/03 05:50:43;;;;;;;6.45;4.40;;;18.40;85.30;;;;;;5072421;28;20048;-69
2021/06/03 05:53:08;;;;;;;5.07;3.88;;;18.60;80.50;;;;;;5073358;28;20090;-68
2021/06/03 05:55:34;;;;;;;9.10;4.57;;;18.90;78.90;;;;;;5074500;28;20021;-69
2021/06/03 05:58:00;;;;;;;4.53;4.00;;;19.20;76.60;;;;;;5073378;28;20486;-69
2021/06/03 06:00:32;;;;;;;5.90;4.65;;;19.40;75.60;;;;;;5074510;28;20035;-69
2021/06/03 06:03:02;;;;;;;8.65;5.03;;;19.70;74.50;;;;;;5073283;28;20469;-69
2021/06/03 06:08:13;;;;;;;6.05;4.60;;;20.10;73.00;;;;;;5073197;28;20864;-68
2021/06/03 06:10:40;;;;;;;5.05;4.00;;;20.20;73.00;;;;;;5070497;28;20028;-69
2021/06/03 06:13:06;;;;;;;7.03;4.45;;;20.20;72.90;;;;;;5064016;28;20075;-68
2021/06/03 06:15:33;;;;;;;8.45;4.22;;;20.10;73.10;;;;;;5065508;28;20027;-71
2021/06/03 06:17:59;;;;;;;4.72;4.03;;;20.10;73.10;;;;;;5064921;28;20033;-67
2021/06/03 06:20:26;;;;;;;5.95;4.15;;;20.10;73.50;;;;;;5065056;28;20028;-68
2021/06/03 06:22:54;;;;;;;5.65;4.43;;;20.00;73.40;;;;;;5062543;28;20119;-67
2021/06/03 06:25:20;;;;;;;6.80;4.28;;;20.10;73.80;;;;;;5064342;28;20036;-67
2021/06/03 06:27:46;;;;;;;4.18;3.78;;;20.10;73.50;;;;;;5065597;28;20626;-68
2021/06/03 06:30:13;;;;;;;6.90;4.03;;;20.10;73.70;;;;;;5056104;28;20017;-69
2021/06/03 06:32:40;;;;;;;4.50;4.03;;;20.10;74.50;;;;;;5063312;28;20041;-68
2021/06/03 06:35:07;;;;;;;10.50;4.10;;;20.20;74.20;;;;;;5060759;28;20081;-70
2021/06/03 06:37:33;;;;;;;4.53;4.00;;;20.20;74.90;;;;;;5062812;28;20039;-67
2021/06/03 06:39:59;;;;;;;5.45;3.90;;;20.20;74.50;;;;;;5063003;28;20029;-67
2021/06/03 06:42:26;;;;;;;4.78;3.97;;;20.10;74.40;;;;;;5063989;28;20167;-67
2021/06/03 06:44:52;;;;;;;4.32;3.75;;;20.20;74.20;;;;;;5061946;28;20024;-67
2021/06/03 06:47:17;;;;;;;4.78;4.05;;;20.20;75.00;;;;;;5063307;28;20032;-67
2021/06/03 06:49:43;;;;;;;6.43;4.07;;;20.20;75.50;;;;;;5065339;28;20107;-67
2021/06/03 06:52:09;;;;;;;5.68;4.00;;;20.20;75.40;;;;;;5065660;28;20064;-66
2021/06/03 06:54:35;;;;;;;3.97;3.50;;;20.20;75.80;;;;;;5065509;28;20033;-66
2021/06/03 06:57:00;;;;;;;5.95;4.32;;;20.20;76.00;;;;;;5061408;28;20044;-66
2021/06/03 06:59:26;;;;;;;6.28;4.28;;;20.20;75.20;;;;;;5064598;28;20074;-67
2021/06/03 07:01:51;;;;;;;5.43;4.57;;;20.30;74.40;;;;;;5065413;28;20078;-68
2021/06/03 07:04:17;;;;;;;4.53;3.97;;;20.30;74.20;;;;;;5061967;28;20021;-68
2021/06/03 07:06:43;;;;;;;5.00;4.38;;;20.20;74.10;;;;;;5059268;28;20363;-67
2021/06/03 07:09:09;;;;;;;4.40;4.00;;;20.10;74.40;;;;;;5056691;28;20039;-68
2021/06/03 07:11:35;;;;;;;5.18;4.20;;;20.10;75.00;;;;;;5061865;28;20457;-68
2021/06/03 07:14:01;;;;;;;6.63;4.90;;;20.00;75.30;;;;;;5063186;28;20033;-68
2021/06/03 07:16:27;;;;;;;7.18;4.22;;;20.00;76.20;;;;;;5065357;28;20025;-68
2021/06/03 07:18:52;;;;;;;8.65;4.30;;;20.00;75.60;;;;;;5062000;28;20071;-68
2021/06/03 07:21:18;;;;;;;8.50;4.45;;;20.00;75.60;;;;;;5063724;28;20038;-71
2021/06/03 07:23:44;;;;;;;6.72;4.43;;;20.00;75.70;;;;;;5062099;28;20051;-68
2021/06/03 07:26:10;;;;;;;6.40;4.03;;;20.10;75.70;;;;;;5064615;28;20031;-76
2021/06/03 07:28:35;;;;;;;5.57;4.10;;;20.10;76.60;;;;;;5061773;28;20028;-74
2021/06/03 07:31:02;;;;;;;6.03;4.10;;;20.10;76.00;;;;;;5059988;28;20040;-71
2021/06/03 07:33:28;;;;;;;6.38;3.95;;;20.20;76.00;;;;;;5064268;28;20036;-72
2021/06/03 07:35:53;;;;;;;8.52;3.80;;;20.20;76.30;;;;;;5062255;28;20032;-71
2021/06/03 07:38:19;;;;;;;5.85;3.83;;;20.30;76.00;;;;;;5061391;28;20029;-73
2021/06/03 07:40:45;;;;;;;5.50;4.15;;;20.50;75.50;;;;;;5064114;28;20575;-75
2021/06/03 07:43:13;;;;;;;7.32;4.28;;;20.70;74.90;;;;;;5061137;28;20036;-73
2021/06/03 07:45:40;;;;;;;5.60;4.18;;;20.90;73.60;;;;;;5059221;28;20493;-72
2021/06/03 07:48:06;;;;;;;5.30;3.63;;;21.20;72.60;;;;;;5057887;28;20058;-75
2021/06/03 07:50:33;;;;;;;5.75;4.07;;;21.20;72.80;;;;;;5063313;28;20051;-72
2021/06/03 07:53:01;;;;;;;6.25;4.43;;;21.40;72.10;;;;;;5061618;28;20053;-73
2021/06/03 07:55:27;;;;;;;6.65;3.33;;;21.50;71.90;;;;;;5062183;28;20028;-73
2021/06/03 07:57:56;;;;;;;7.25;4.32;;;21.60;72.00;;;;;;5061693;28;20035;-74
2021/06/03 08:00:24;;;;;;;8.25;3.95;;;21.90;70.70;;;;;;5061938;28;20048;-75
2021/06/03 08:02:50;;;;;;;6.18;3.65;;;22.00;71.20;;;;;;5059445;28;20032;-79
2021/06/03 08:05:19;;;;;;;5.63;3.40;;;22.10;70.70;;;;;;5062189;28;20028;-77
2021/06/03 08:07:46;;;;;;;6.85;3.90;;;22.20;71.00;;;;;;5069603;28;20491;-73
2021/06/03 08:10:17;;;;;;;4.35;3.25;;;22.40;70.20;;;;;;5070549;28;20039;-70
2021/06/03 08:12:43;;;;;;;4.85;2.97;;;22.50;69.30;;;;;;5062279;28;20119;-71
2021/06/03 08:15:11;;;;;;;5.53;2.38;;;22.70;69.30;;;;;;5067755;28;20051;-70
2021/06/03 08:17:37;;;;;;;4.90;3.00;;;22.80;68.50;;;;;;5071861;28;20031;-70
2021/06/03 08:20:06;;;;;;;4.32;2.88;;;22.90;67.90;;;;;;5070633;28;20024;-69
2021/06/03 08:22:32;;;;;;;4.60;2.72;;;23.10;67.80;;;;;;5071808;28;20040;-69
2021/06/03 08:24:58;;;;;;;4.68;3.30;;;23.30;67.60;;;;;;5066489;28;20524;-73
2021/06/03 08:27:23;;;;;;;7.15;3.38;;;23.60;66.20;;;;;;5051606;28;20039;-67
2021/06/03 08:29:49;;;;;;;4.43;3.20;;;23.80;65.60;;;;;;5071502;28;20396;-71
2021/06/03 08:32:15;;;;;;;4.68;2.53;;;23.90;65.30;;;;;;5071759;28;20040;-69
2021/06/03 08:34:40;;;;;;;4.72;3.15;;;24.10;64.90;;;;;;5071165;28;20089;-70
2021/06/03 08:37:06;;;;;;;3.33;3.03;;;24.20;64.30;;;;;;5061409;28;20385;-71
2021/06/03 08:39:31;;;;;;;4.68;2.97;;;24.30;63.80;;;;;;5071232;28;20108;-69
2021/06/03 08:41:58;;;;;;;5.95;2.70;;;24.40;64.00;;;;;;5063077;28;20036;-69
2021/06/03 08:44:28;;;;;;;4.57;3.20;;;24.50;64.10;;;;;;5063314;28;20039;-71
2021/06/03 08:46:55;;;;;;;5.82;3.00;;;24.70;63.20;;;;;;5072300;28;20077;-69
2021/06/03 08:49:20;;;;;;;5.32;2.95;;;24.90;62.30;;;;;;5070940;28;20094;-71
2021/06/03 08:51:47;;;;;;;8.82;3.10;;;24.90;61.90;;;;;;5070448;28;20098;-67
2021/06/03 08:54:12;;;;;;;4.05;2.47;;;25.00;61.50;;;;;;5070550;28;20035;-68
2021/06/03 08:56:38;;;;;;;7.03;3.20;;;25.00;62.20;;;;;;5071192;28;20024;-70
2021/06/03 08:59:04;;;;;;;5.28;2.92;;;25.20;61.80;;;;;;5070652;28;20381;-68
2021/06/03 09:01:30;;;;;;;5.53;3.05;;;25.40;61.00;;;;;;5070859;28;20084;-68
2021/06/03 09:03:57;;;;;;;4.28;3.33;;;25.50;60.80;;;;;;5071336;28;20036;-67
2021/06/03 09:06:23;;;;;;;6.00;3.20;;;25.40;61.30;;;;;;5068012;28;20107;-67
2021/06/03 09:08:57;;;;;;;4.07;3.10;;;25.50;61.20;;;;;;5070601;28;21703;-67
2021/06/03 09:11:24;;;;;;;3.97;3.05;;;25.50;61.30;;;;;;5070203;28;20039;-68
2021/06/03 09:13:52;;;;;;;5.78;3.05;;;25.60;61.80;;;;;;5067713;28;20032;-75
2021/06/03 09:16:19;;;;;;;6.70;3.30;;;25.60;61.10;;;;;;5070402;28;20462;-67
2021/06/03 09:19:04;;;;;;;4.40;2.83;;;25.60;61.10;;;;;;5052895;28;20460;-68
2021/06/03 09:21:31;;;;;;;3.40;3.03;;;25.70;60.80;;;;;;5070857;28;20486;-69
2021/06/03 09:24:03;;;;;;;8.10;3.10;;;25.70;60.40;;;;;;5071734;28;20028;-69
2021/06/03 09:26:37;;;;;;;4.25;2.90;;;25.80;60.20;;;;;;5075084;28;20119;-67
2021/06/03 09:29:07;;;;;;;2.45;2.10;;;25.90;59.00;;;;;;5074031;28;20020;-69
2021/06/03 09:31:36;;;;;;;;;;;25.90;59.40;;;;;;5075381;28;20029;-70
2021/06/03 09:34:20;;;;;;;4.60;2.60;;;26.00;58.40;;;;;;5074660;28;19909;-71
2021/06/03 09:36:51;;;;;;;3.03;2.20;;;26.00;59.00;;;;;;5068356;28;20453;-71
2021/06/03 09:39:30;;;;;;;3.75;2.70;;;26.20;57.80;;;;;;5074061;28;20046;-69
2021/06/03 09:42:01;;;;;;;4.22;2.10;;;26.40;57.60;;;;;;5068173;28;20389;-70
2021/06/03 09:44:35;;;;;;;3.25;2.53;;;26.60;57.20;;;;;;5056041;28;20473;-73
2021/06/03 09:47:05;;;;;;;5.22;2.67;;;26.80;56.60;;;;;;5067522;28;20025;-74
2021/06/03 09:49:38;;;;;;;2.78;2.58;;;26.90;56.20;;;;;;5074277;28;20024;-86
2021/06/03 09:52:08;;;;;;;4.93;1.88;;;27.00;56.10;;;;;;5074744;28;20048;-79
2021/06/03 09:54:35;;;;;;;2.92;2.13;;;27.10;55.50;;;;;;5074861;28;20024;-79
2021/06/03 09:57:04;;;;;;;5.43;2.10;;;27.10;54.20;;;;;;5074622;28;20064;-77
2021/06/03 09:59:34;;;;;;;2.67;1.90;;;27.00;53.50;;;;;;5075636;28;20485;-84
2021/06/03 10:02:03;;;;;;;;;;;27.00;53.40;;;;;;5072886;28;20035;-79
2021/06/03 10:04:35;;;;;;;2.70;1.90;;;27.10;53.60;;;;;;5076934;28;19912;-71
2021/06/03 10:07:12;;;;;;;6.30;2.10;;;27.20;53.30;;;;;;5073432;28;21621;-73
2021/06/03 10:09:41;;;;;;;1.95;1.70;;;27.40;53.00;;;;;;5074452;28;20158;-74
2021/06/03 10:12:25;;;;;;;5.60;1.77;;;27.60;52.40;;;;;;5073395;28;20037;-69
2021/06/03 10:14:58;;;;;;;2.38;1.63;;;27.70;51.50;;;;;;5073223;28;20462;-72
2021/06/03 10:17:33;;;;;;;2.42;1.60;;;27.70;51.70;;;;;;5072969;28;20029;-74
2021/06/03 10:20:02;;;;;;;2.13;1.60;;;27.90;52.10;;;;;;5066223;28;20351;-71
2021/06/03 10:22:32;;;;;;;2.33;1.80;;;28.00;50.90;;;;;;5073363;28;20032;-71
2021/06/03 10:25:04;;;;;;;2.67;1.85;;;28.10;50.40;;;;;;5073877;28;20052;-71
2021/06/03 10:27:36;;;;;;;2.63;1.92;;;28.20;50.50;;;;;;5073857;28;20131;-73
2021/06/03 10:30:07;;;;;;;3.20;1.98;;;28.20;49.40;;;;;;5073768;28;20031;-72
2021/06/03 10:32:34;;;;;;;4.00;1.67;;;28.20;50.00;;;;;;5071758;28;20392;-72
2021/06/03 10:35:01;;;;;;;3.67;1.85;;;28.30;50.90;;;;;;5073595;28;20367;-71
2021/06/03 10:37:27;;;;;;;1.85;1.60;;;28.40;49.60;;;;;;5072309;28;20025;-71
2021/06/03 10:39:55;;;;;;;3.65;1.40;;;28.70;48.00;;;;;;5074333;28;20035;-68
2021/06/03 10:42:22;;;;;;;3.03;1.67;;;28.70;47.60;;;;;;5072914;28;20029;-72
2021/06/03 10:44:48;;;;;;;1.90;1.52;;;28.80;47.20;;;;;;5066897;28;20025;-70
2021/06/03 10:47:15;;;;;;;3.58;1.27;;;28.90;47.00;;;;;;5071821;28;20029;-70
2021/06/03 10:49:42;;;;;;;4.03;1.45;;;29.10;46.30;;;;;;5065265;28;20033;-70
2021/06/03 10:52:10;;;;;;;1.50;1.40;;;29.40;45.60;;;;;;5063247;28;20070;-70
2021/06/03 10:54:41;;;;;;;1.33;1.23;;;29.60;44.80;;;;;;5061336;28;20108;-70
2021/06/03 10:57:07;;;;;;;3.25;1.33;;;29.70;43.60;;;;;;5059782;28;20033;-69
2021/06/03 10:59:33;;;;;;;2.97;1.48;;;29.70;43.80;;;;;;5064143;28;20119;-69
2021/06/03 11:02:00;;;;;;;1.75;1.50;;;29.80;43.20;;;;;;5066200;28;20036;-69
2021/06/03 11:04:27;;;;;;;1.88;1.10;;;29.80;43.50;;;;;;5065521;28;20465;-70
2021/06/03 11:06:53;;;;;;;3.55;1.80;;;30.00;43.20;;;;;;5065536;28;20363;-71
2021/06/03 11:09:28;;;;;;;5.43;1.77;;;30.30;43.50;;;;;;5060658;28;20044;-70
2021/06/03 11:12:17;;;;;;;2.55;1.35;;;30.30;43.00;;;;;;5064171;28;20033;-70
2021/06/03 11:15:16;;;;;;;2.08;1.60;;;30.20;43.50;;;;;;5064398;28;20056;-72
2021/06/03 11:17:53;;;;;;;2.27;1.40;;;30.20;43.50;;;;;;5065404;28;20102;-69
2021/06/03 11:20:33;;;;;;;1.77;1.13;;;30.40;43.10;;;;;;5062130;28;20029;-69
2021/06/03 11:23:42;;;;;;;2.70;1.58;;;30.40;43.10;;;;;;5063220;28;20044;-70
2021/06/03 11:26:08;;;;;;;4.03;1.55;;;30.40;43.50;;;;;;5064621;28;20033;-69
2021/06/03 11:28:34;;;;;;;1.90;1.50;;;29.90;44.00;;;;;;5063393;28;20021;-69
2021/06/03 11:31:19;;;;;;;3.30;1.77;;;29.70;44.70;;;;;;5063582;28;20040;-69
2021/06/03 11:34:06;;;;;;;4.18;1.77;;;29.50;44.80;;;;;;5063049;28;20113;-68
2021/06/03 11:36:33;;;;;;;7.18;1.70;;;29.20;45.20;;;;;;5064382;28;20099;-68
2021/06/03 11:38:59;;;;;;;4.90;1.70;;;29.10;48.20;;;;;;5062415;28;20033;-68
2021/06/03 11:41:37;;;;;;;4.05;2.10;;;28.90;49.80;;;;;;5063657;28;20033;-68
2021/06/03 11:44:15;;;;;;;2.67;2.30;;;28.50;50.40;;;;;;5065652;28;20025;-68
2021/06/03 11:46:49;;;;;;;5.47;2.50;;;28.10;51.10;;;;;;5064336;28;20071;-69
2021/06/03 11:49:40;;;;;;;3.00;2.00;;;27.80;51.50;;;;;;5062088;28;20127;-69
2021/06/03 11:52:19;;;;;;;2.38;1.90;;;27.60;52.20;;;;;;5067105;28;20041;-69
2021/06/03 11:55:10;;;;;;;7.00;2.40;;;27.60;52.90;;;;;;5061044;28;20029;-71
2021/06/03 11:57:38;;;;;;;4.15;2.50;;;28.00;51.40;;;;;;5062947;28;20123;-70
2021/06/03 12:00:12;;;;;;;4.47;2.13;;;28.20;51.40;;;;;;5071986;28;20043;-71
2021/06/03 12:02:41;;;;;;;10.20;3.20;;;28.30;50.80;;;;;;5073777;28;20483;-70
2021/06/03 12:05:10;;;;;;;7.03;2.22;;;28.30;51.20;;;;;;5071744;28;20082;-70
2021/06/03 12:07:45;;;;;;;6.18;3.20;;;28.20;52.00;;;;;;5071988;28;20032;-70
2021/06/03 12:10:13;;;;;;;3.50;2.20;;;28.00;53.40;;;;;;5071202;28;20035;-68
2021/06/03 12:12:40;;;;;;;8.23;2.40;;;27.80;52.70;;;;;;5071646;28;20086;-69
2021/06/03 12:15:27;;;;;;;3.38;1.63;;;27.50;53.70;;;;;;5071536;28;20094;-73
2021/06/03 12:17:55;;;;;;;3.75;2.03;;;27.20;54.40;;;;;;5064829;28;20211;-72
2021/06/03 12:20:21;;;;;;;3.08;1.98;;;27.00;55.30;;;;;;5071003;28;20056;-68
2021/06/03 12:22:47;;;;;;;3.45;2.50;;;26.80;57.10;;;;;;5071149;28;20034;-70
2021/06/03 12:25:13;;;;;;;2.42;2.13;;;26.40;58.20;;;;;;5070269;28;20133;-70
2021/06/03 12:27:45;;;;;;;4.38;2.35;;;26.00;59.60;;;;;;5054335;28;20090;-69
2021/06/03 12:30:29;;;;;;;3.53;2.05;;;25.80;60.80;;;;;;5071002;28;20424;-69
2021/06/03 12:33:09;;;;;;;11.73;3.97;;;25.40;61.70;;;;;;5063905;28;20078;-68
2021/06/03 12:35:48;;;;;;;4.65;2.88;;;25.00;67.00;;;;;;5071186;28;20141;-70
2021/06/03 12:38:28;;;;;;;14.57;5.65;;;24.10;70.00;;;;;;5062129;28;20052;-72
2021/06/03 12:40:55;;;;;;;14.25;5.80;;;23.20;91.30;;;;;;5071385;28;20032;-72
2021/06/03 12:43:21;;;;;;;7.97;4.10;;;22.30;99.60;;;;;;5070033;28;20036;-71
2021/06/03 12:45:47;;;;;;;10.65;4.25;;;21.30;99.90;;;;;;5070905;28;20496;-71
2021/06/03 12:48:15;;;;;;;11.15;4.47;;;20.30;99.90;;;;;;5070698;28;20203;-72
2021/06/03 12:50:47;;;;;;;13.23;5.05;;;19.60;99.90;;;;;;5070959;28;20493;-70
2021/06/03 12:53:19;;;;;;;11.05;5.05;;;19.10;99.90;;;;;;5070609;28;20123;-69
2021/06/03 12:55:46;;;;;;;15.48;6.40;;;18.90;99.90;;;;;;5071384;28;20063;-68
2021/06/03 12:58:15;;;;;;;9.35;5.55;;;18.70;99.90;;;;;;5070375;28;20047;-69
2021/06/03 13:00:41;;;;;;;8.00;4.72;;;18.70;99.90;;;;;;5071401;28;20519;-69
2021/06/03 13:03:22;;;;;;;9.73;5.40;;;18.70;99.90;;;;;;5071195;28;20162;-73
2021/06/03 13:06:01;;;;;;;9.57;5.72;;;18.80;99.90;;;;;;5070992;28;20439;-68
2021/06/03 13:08:51;;;;;;;10.75;6.00;;;18.90;99.90;;;;;;5070559;28;20024;-68
2021/06/03 13:11:34;;;;;;;7.97;4.75;;;19.00;99.90;;;;;;5065149;28;20042;-68
2021/06/03 13:14:25;;;;;;;7.88;4.82;;;19.10;99.90;;;;;;5070207;28;20032;-71